createdAt,value
2019-04-07T00:01:56.013Z,62.20
2019-04-07T00:04:47.665Z,62.40
2019-04-07T00:07:39.069Z,62.40
2019-04-07T00:10:29.642Z,62.40
2019-04-07T00:13:25.894Z,62.50
2019-04-07T00:16:17.012Z,62.50
2019-04-07T00:19:08.174Z,62.60
2019-04-07T00:22:07.781Z,62.70
2019-04-07T00:24:59.566Z,62.70
2019-04-07T00:27:50.638Z,62.60
2019-04-07T00:30:42.518Z,62.70
2019-04-07T00:33:33.875Z,62.80
2019-04-07T00:36:25.376Z,63.10
2019-04-07T00:39:21.249Z,63.00
2019-04-07T00:42:14.774Z,63.20
2019-04-07T00:45:10.058Z,63.40
2019-04-07T00:48:01.424Z,63.40
2019-04-07T00:50:53.820Z,63.10
2019-04-07T00:53:45.474Z,63.60
2019-04-07T00:56:35.881Z,63.60
2019-04-07T00:59:26.427Z,63.70
2019-04-07T01:02:17.848Z,64.00
2019-04-07T01:05:09.499Z,64.00
2019-04-07T01:08:00.609Z,64.10
2019-04-07T01:10:52.496Z,64.20
2019-04-07T01:13:43.126Z,64.10
2019-04-07T01:16:34.141Z,65.00
2019-04-07T01:19:39.750Z,64.20
2019-04-07T01:22:30.934Z,64.30
2019-04-07T01:25:25.614Z,64.70
2019-04-07T01:28:35.395Z,64.70
2019-04-07T01:31:25.487Z,64.60
2019-04-07T01:34:15.968Z,64.70
2019-04-07T01:37:08.742Z,64.90
2019-04-07T01:40:00.247Z,64.90
2019-04-07T01:43:16.240Z,65.00
2019-04-07T01:46:31.727Z,65.10
2019-04-07T01:49:40.414Z,65.00
2019-04-07T01:52:55.644Z,65.10
2019-04-07T01:56:11.753Z,65.20
2019-04-07T01:59:12.180Z,65.30
2019-04-07T02:02:41.289Z,65.30
2019-04-07T02:05:58.699Z,65.10
2019-04-07T02:09:14.168Z,65.40
2019-04-07T02:12:12.571Z,65.50
2019-04-07T02:15:19.759Z,65.50
2019-04-07T02:18:24.745Z,65.80
2019-04-07T02:21:24.924Z,65.80
2019-04-07T02:24:23.478Z,66.00
2019-04-07T02:27:21.395Z,66.10
2019-04-07T02:30:29.744Z,66.10
2019-04-07T02:33:42.456Z,66.30
2019-04-07T02:36:56.752Z,66.20
2019-04-07T02:39:54.875Z,66.30
2019-04-07T02:43:03.031Z,66.70
2019-04-07T02:46:18.511Z,67.00
2019-04-07T02:49:17.893Z,67.20
2019-04-07T02:52:30.303Z,67.00
2019-04-07T02:55:48.808Z,67.30
2019-04-07T02:59:04.662Z,67.70
2019-04-07T03:02:12.119Z,68.10
2019-04-07T03:05:29.683Z,68.50
2019-04-07T03:08:39.653Z,68.50
2019-04-07T03:11:42.929Z,68.70
2019-04-07T03:14:45.642Z,68.50
2019-04-07T03:17:43.412Z,68.70
2019-04-07T03:21:01.171Z,69.00
2019-04-07T03:24:28.883Z,69.20
2019-04-07T03:27:38.345Z,69.30
2019-04-07T03:30:47.970Z,69.80
2019-04-07T03:33:48.118Z,69.50
2019-04-07T03:37:19.268Z,69.50
2019-04-07T03:40:02.599Z,69.70
2019-04-07T03:42:57.915Z,69.70
2019-04-07T03:46:03.690Z,69.60
2019-04-07T03:49:20.041Z,69.70
2019-04-07T03:52:28.771Z,69.50
2019-04-07T03:55:32.297Z,70.40
2019-04-07T03:59:01.123Z,70.40
2019-04-07T04:02:10.020Z,70.50
2019-04-07T04:05:20.747Z,71.30
2019-04-07T04:08:18.340Z,71.30
2019-04-07T04:11:29.319Z,71.50
2019-04-07T04:14:27.514Z,71.80
2019-04-07T04:17:19.402Z,72.00
2019-04-07T04:20:10.697Z,72.00
2019-04-07T04:23:01.518Z,73.10
2019-04-07T04:25:53.685Z,73.60
2019-04-07T04:28:45.115Z,73.90
2019-04-07T04:31:37.092Z,74.00
2019-04-07T04:34:28.481Z,74.10
2019-04-07T04:37:34.256Z,74.20
2019-04-07T04:40:12.481Z,74.20
2019-04-07T04:43:03.640Z,74.60
2019-04-07T04:45:54.791Z,75.20
2019-04-07T04:48:45.660Z,74.70
2019-04-07T04:51:39.261Z,74.50
2019-04-07T04:54:29.114Z,74.70
2019-04-07T04:57:19.914Z,75.20
2019-04-07T05:00:12.242Z,75.20
2019-04-07T05:03:02.813Z,74.90
2019-04-07T05:05:54.579Z,75.40
2019-04-07T05:08:45.615Z,77.00
2019-04-07T05:11:37.099Z,78.50
2019-04-07T05:14:28.496Z,77.80
2019-04-07T05:17:18.925Z,78.90
2019-04-07T05:20:10.229Z,79.00
2019-04-07T05:23:04.075Z,79.80
2019-04-07T05:25:55.712Z,80.30
2019-04-07T05:28:47.157Z,80.80
2019-04-07T05:31:38.703Z,81.90
2019-04-07T05:34:30.350Z,82.80
2019-04-07T05:37:22.010Z,84.00
2019-04-07T05:40:14.066Z,85.40
2019-04-07T05:43:04.762Z,86.30
2019-04-07T05:45:56.375Z,87.80
2019-04-07T05:48:47.569Z,89.20
2019-04-07T05:51:39.321Z,90.00
2019-04-07T05:54:30.626Z,90.00
2019-04-07T05:57:25.070Z,90.40
2019-04-07T06:00:16.985Z,90.50
2019-04-07T06:03:09.303Z,90.90
2019-04-07T06:06:00.457Z,90.80
2019-04-07T06:08:50.988Z,90.70
2019-04-07T06:11:42.319Z,90.90
2019-04-07T06:14:33.491Z,91.10
2019-04-07T06:17:26.345Z,91.40
2019-04-07T06:20:18.060Z,91.60
2019-04-07T06:23:10.478Z,91.70
2019-04-07T06:26:00.964Z,91.00
2019-04-07T06:28:57.013Z,91.00
2019-04-07T06:31:44.754Z,90.10
2019-04-07T06:34:35.363Z,89.80
2019-04-07T06:37:29.399Z,88.30
2019-04-07T06:40:22.254Z,88.20
2019-04-07T06:43:14.570Z,86.60
2019-04-07T06:46:33.304Z,85.40
2019-04-07T06:49:29.904Z,83.80
2019-04-07T06:52:47.698Z,83.10
2019-04-07T06:56:03.047Z,81.90
2019-04-07T06:59:01.628Z,82.50
2019-04-07T07:02:10.660Z,81.80
2019-04-07T07:05:20.019Z,81.40
2019-04-07T07:08:24.646Z,79.20
2019-04-07T07:11:29.289Z,77.60
2019-04-07T07:14:47.343Z,75.20
2019-04-07T07:18:09.020Z,74.50
2019-04-07T07:21:05.091Z,73.50
2019-04-07T07:23:55.796Z,74.10
2019-04-07T07:26:47.901Z,72.90
2019-04-07T07:29:39.808Z,70.00
2019-04-07T07:32:36.995Z,70.00
2019-04-07T07:35:27.351Z,68.60
2019-04-07T07:38:21.490Z,66.60
2019-04-07T07:41:12.586Z,68.20
2019-04-07T07:44:06.440Z,68.20
2019-04-07T07:46:57.025Z,67.30
2019-04-07T07:49:50.996Z,65.00
2019-04-07T07:52:44.341Z,65.20
2019-04-07T07:55:37.633Z,64.70
2019-04-07T07:58:32.491Z,64.10
2019-04-07T08:01:23.532Z,62.80
2019-04-07T08:04:19.450Z,61.00
2019-04-07T08:07:13.537Z,59.60
2019-04-07T08:10:04.017Z,59.20
2019-04-07T08:12:56.265Z,59.60
2019-04-07T08:15:47.646Z,59.80
2019-04-07T08:18:42.754Z,58.80
2019-04-07T08:21:31.638Z,58.60
2019-04-07T08:24:23.291Z,58.40
2019-04-07T08:27:14.979Z,57.30
2019-04-07T08:30:11.845Z,56.80
2019-04-07T08:33:01.284Z,56.50
2019-04-07T08:35:55.277Z,56.00
2019-04-07T08:38:46.672Z,54.70
2019-04-07T08:41:40.643Z,54.80
2019-04-07T08:44:31.507Z,53.90
2019-04-07T08:47:23.446Z,52.80
2019-04-07T08:50:15.169Z,50.90
2019-04-07T08:53:05.673Z,51.30
2019-04-07T08:55:57.193Z,50.20
2019-04-07T08:58:49.072Z,49.70
2019-04-07T09:01:40.491Z,49.00
2019-04-07T09:04:31.997Z,47.40
2019-04-07T09:07:24.489Z,46.70
2019-04-07T09:10:22.594Z,46.80
2019-04-07T09:13:13.468Z,46.80
2019-04-07T09:16:23.605Z,46.40
2019-04-07T09:19:28.824Z,45.60
2019-04-07T09:22:42.030Z,45.60
2019-04-07T09:25:50.219Z,45.70
2019-04-07T09:29:18.028Z,44.60
2019-04-07T09:32:37.574Z,44.20
2019-04-07T09:35:49.790Z,45.20
2019-04-07T09:39:09.678Z,45.60
2019-04-07T09:42:18.742Z,45.80
2019-04-07T09:45:27.639Z,45.80
2019-04-07T09:48:48.804Z,46.50
2019-04-07T09:51:45.257Z,46.20
2019-04-07T09:54:43.889Z,46.10
2019-04-07T09:57:53.872Z,45.50
2019-04-07T10:00:57.707Z,46.40
2019-04-07T10:03:58.972Z,46.30
2019-04-07T10:07:15.022Z,45.40
2019-04-07T10:10:19.120Z,44.50
2019-04-07T10:13:26.373Z,44.10
2019-04-07T10:16:35.091Z,43.40
2019-04-07T10:19:44.622Z,43.00
2019-04-07T10:22:55.295Z,43.00
2019-04-07T10:26:11.814Z,42.40
2019-04-07T10:29:17.687Z,43.10
2019-04-07T10:32:37.413Z,42.60
2019-04-07T10:35:49.737Z,42.90
2019-04-07T10:38:47.997Z,42.70
2019-04-07T10:42:09.497Z,41.90
2019-04-07T10:45:43.875Z,42.30
2019-04-07T10:48:41.009Z,41.20
2019-04-07T10:51:51.273Z,40.80
2019-04-07T10:54:48.427Z,41.40
2019-04-07T10:57:58.438Z,41.50
2019-04-07T11:01:14.491Z,41.60
2019-04-07T11:04:19.218Z,40.60
2019-04-07T11:07:34.696Z,40.60
2019-04-07T11:10:44.182Z,40.30
2019-04-07T11:14:00.948Z,40.70
2019-04-07T11:17:06.824Z,40.90
2019-04-07T11:20:23.686Z,40.60
2019-04-07T11:23:24.147Z,40.20
2019-04-07T11:26:40.357Z,39.20
2019-04-07T11:29:46.437Z,38.40
2019-04-07T11:32:47.811Z,38.10
2019-04-07T11:35:44.351Z,37.60
2019-04-07T11:38:48.463Z,37.80
2019-04-07T11:42:01.801Z,38.00
2019-04-07T11:45:13.871Z,38.30
2019-04-07T11:48:30.223Z,38.60
2019-04-07T11:51:36.856Z,38.90
2019-04-07T11:54:49.376Z,39.30
2019-04-07T11:57:46.174Z,40.00
2019-04-07T12:00:59.282Z,39.80
2019-04-07T12:04:27.266Z,40.10
2019-04-07T12:07:35.582Z,40.30
2019-04-07T12:10:56.183Z,41.00
2019-04-07T12:13:44.895Z,40.70
2019-04-07T12:16:53.485Z,41.20
2019-04-07T12:20:01.577Z,41.40
2019-04-07T12:22:59.305Z,41.80
2019-04-07T12:26:18.153Z,42.40
2019-04-07T12:29:36.955Z,42.70
2019-04-07T12:32:41.448Z,42.20
2019-04-07T12:35:37.851Z,43.30
2019-04-07T12:38:43.227Z,43.40
2019-04-07T12:41:54.145Z,43.30
2019-04-07T12:45:12.436Z,43.30
2019-04-07T12:48:21.198Z,42.80
2019-04-07T12:51:30.779Z,43.30
2019-04-07T12:54:53.602Z,43.40
2019-04-07T12:57:52.070Z,43.60
2019-04-07T13:01:15.280Z,43.70
2019-04-07T13:04:11.165Z,43.50
2019-04-07T13:07:33.561Z,43.80
2019-04-07T13:10:38.852Z,43.90
2019-04-07T13:13:50.596Z,44.00
2019-04-07T13:17:01.691Z,43.70
2019-04-07T13:20:18.092Z,44.40
2019-04-07T13:23:31.621Z,44.50
2019-04-07T13:26:44.484Z,44.50
2019-04-07T13:29:42.027Z,44.80
2019-04-07T13:32:52.404Z,44.40
2019-04-07T13:36:10.392Z,45.10
2019-04-07T13:39:26.024Z,44.80
2019-04-07T13:42:38.971Z,44.50
2019-04-07T13:45:50.576Z,44.60
2019-04-07T13:49:04.394Z,44.60
2019-04-07T13:52:17.868Z,44.70
2019-04-07T13:55:17.145Z,45.30
2019-04-07T13:58:31.690Z,44.60
2019-04-07T14:01:29.326Z,45.00
2019-04-07T14:04:36.073Z,45.40
2019-04-07T14:07:51.650Z,45.10
2019-04-07T14:11:10.124Z,45.60
2019-04-07T14:14:22.281Z,45.40
2019-04-07T14:17:37.392Z,44.80
2019-04-07T14:20:54.166Z,44.90
2019-04-07T14:24:04.752Z,45.00
2019-04-07T14:27:07.512Z,45.30
2019-04-07T14:30:29.159Z,45.30
2019-04-07T14:33:38.217Z,45.40
2019-04-07T14:36:46.700Z,45.40
2019-04-07T14:39:43.396Z,45.70
2019-04-07T14:43:01.053Z,45.30
2019-04-07T14:46:16.163Z,45.70
2019-04-07T14:49:26.694Z,45.20
2019-04-07T14:52:48.268Z,45.20
2019-04-07T14:55:52.088Z,45.00
2019-04-07T14:59:06.584Z,45.40
2019-04-07T15:02:00.494Z,45.70
2019-04-07T15:04:57.070Z,46.10
2019-04-07T15:07:59.622Z,45.90
2019-04-07T15:10:53.044Z,46.00
2019-04-07T15:13:45.498Z,46.10
2019-04-07T15:16:39.733Z,45.90
2019-04-07T15:19:31.031Z,45.80
2019-04-07T15:22:25.877Z,45.70
2019-04-07T15:25:13.334Z,46.00
2019-04-07T15:28:04.339Z,46.80
2019-04-07T15:30:56.740Z,46.30
2019-04-07T15:33:47.886Z,46.20
2019-04-07T15:36:38.668Z,46.50
2019-04-07T15:39:30.282Z,47.20
2019-04-07T15:42:33.124Z,47.00
2019-04-07T15:45:15.139Z,47.50
2019-04-07T15:48:07.125Z,47.40
2019-04-07T15:51:03.142Z,47.20
2019-04-07T15:53:52.002Z,47.10
2019-04-07T15:57:02.506Z,47.20
2019-04-07T15:59:54.086Z,48.60
2019-04-07T16:02:46.116Z,48.10
2019-04-07T16:05:42.426Z,47.60
2019-04-07T16:08:30.843Z,47.60
2019-04-07T16:11:24.712Z,47.50
2019-04-07T16:14:15.903Z,47.80
2019-04-07T16:17:10.593Z,47.80
2019-04-07T16:20:00.517Z,47.80
2019-04-07T16:22:51.870Z,48.00
2019-04-07T16:25:44.282Z,48.00
2019-04-07T16:28:35.193Z,48.00
2019-04-07T16:31:27.158Z,47.90
2019-04-07T16:34:19.177Z,48.10
2019-04-07T16:37:11.963Z,48.20
2019-04-07T16:40:06.271Z,48.50
2019-04-07T16:43:07.691Z,48.70
2019-04-07T16:45:48.543Z,48.90
2019-04-07T16:48:43.098Z,48.80
2019-04-07T16:51:35.125Z,48.70
2019-04-07T16:54:26.608Z,49.00
2019-04-07T16:57:18.619Z,48.90
2019-04-07T17:00:15.267Z,49.00
2019-04-07T17:03:18.949Z,49.50
2019-04-07T17:06:11.989Z,49.00
2019-04-07T17:09:06.544Z,49.20
2019-04-07T17:12:00.275Z,49.10
2019-04-07T17:14:52.104Z,49.20
2019-04-07T17:17:43.744Z,49.70
2019-04-07T17:20:37.682Z,49.30
2019-04-07T17:23:27.212Z,49.60
2019-04-07T17:26:18.217Z,49.50
2019-04-07T17:29:09.177Z,49.50
2019-04-07T17:32:03.643Z,49.60
2019-04-07T17:34:55.165Z,49.50
2019-04-07T17:37:47.326Z,50.30
2019-04-07T17:40:49.230Z,49.90
2019-04-07T17:44:00.850Z,49.70
2019-04-07T17:47:14.661Z,49.80
2019-04-07T17:50:21.395Z,50.30
2019-04-07T17:53:47.559Z,50.00
2019-04-07T17:56:48.139Z,50.20
2019-04-07T17:59:58.280Z,50.00
2019-04-07T18:03:11.908Z,50.20
2019-04-07T18:06:24.981Z,50.20
2019-04-07T18:09:39.501Z,50.20
2019-04-07T18:12:45.545Z,50.60
2019-04-07T18:15:52.525Z,50.60
2019-04-07T18:19:05.971Z,50.40
2019-04-07T18:22:23.530Z,50.40
2019-04-07T18:25:38.797Z,50.50
2019-04-07T18:28:44.361Z,50.60
2019-04-07T18:32:03.987Z,50.70
2019-04-07T18:35:08.309Z,50.80
2019-04-07T18:38:17.344Z,50.70
2019-04-07T18:41:28.797Z,50.80
2019-04-07T18:44:42.612Z,51.00
2019-04-07T18:48:05.343Z,50.90
2019-04-07T18:51:15.952Z,51.10
2019-04-07T18:54:35.502Z,51.20
2019-04-07T18:57:46.190Z,51.10
2019-04-07T19:01:04.185Z,51.20
2019-04-07T19:04:02.395Z,51.30
2019-04-07T19:07:18.515Z,51.40
2019-04-07T19:10:32.343Z,51.50
2019-04-07T19:13:39.280Z,51.70
2019-04-07T19:16:41.872Z,51.70
2019-04-07T19:19:58.098Z,51.70
2019-04-07T19:22:58.915Z,51.90
2019-04-07T19:26:01.336Z,52.00
2019-04-07T19:29:10.631Z,52.40
2019-04-07T19:32:20.100Z,52.00
2019-04-07T19:35:23.533Z,52.00
2019-04-07T19:38:29.956Z,52.10
2019-04-07T19:41:45.715Z,52.50
2019-04-07T19:44:51.080Z,52.30
2019-04-07T19:48:07.103Z,52.30
2019-04-07T19:51:22.694Z,52.60
2019-04-07T19:54:33.485Z,52.50
2019-04-07T19:57:44.837Z,52.60
2019-04-07T20:00:54.286Z,52.70
2019-04-07T20:04:00.522Z,52.60
2019-04-07T20:07:11.981Z,52.90
2019-04-07T20:10:34.529Z,52.80
2019-04-07T20:13:46.793Z,52.90
2019-04-07T20:16:57.773Z,52.90
2019-04-07T20:20:17.437Z,52.90
2019-04-07T20:23:28.517Z,53.10
2019-04-07T20:26:26.668Z,53.10
2019-04-07T20:29:22.484Z,53.20
2019-04-07T20:32:23.343Z,53.50
2019-04-07T20:35:35.013Z,53.40
2019-04-07T20:38:58.026Z,53.60
2019-04-07T20:42:03.963Z,53.60
2019-04-07T20:45:13.654Z,53.60
2019-04-07T20:48:08.183Z,53.50
2019-04-07T20:51:24.220Z,53.60
2019-04-07T20:54:35.149Z,53.70
2019-04-07T20:57:54.014Z,53.60
2019-04-07T21:01:16.328Z,53.70
2019-04-07T21:04:21.820Z,53.70
2019-04-07T21:07:18.535Z,53.60
2019-04-07T21:10:29.556Z,53.80
2019-04-07T21:13:43.094Z,53.90
2019-04-07T21:17:09.479Z,53.90
2019-04-07T21:20:14.561Z,54.00
2019-04-07T21:23:14.092Z,54.10
2019-04-07T21:26:27.201Z,54.40
2019-04-07T21:29:24.768Z,54.60
2019-04-07T21:32:37.311Z,54.70
2019-04-07T21:35:36.986Z,55.00
2019-04-07T21:38:39.167Z,55.10
2019-04-07T21:41:45.163Z,55.00
2019-04-07T21:44:42.811Z,54.70
2019-04-07T21:47:46.114Z,55.30
2019-04-07T21:51:02.348Z,55.50
2019-04-07T21:54:04.024Z,55.50
2019-04-07T21:57:20.128Z,55.50
2019-04-07T22:00:46.247Z,55.50
2019-04-07T22:04:02.931Z,55.40
2019-04-07T22:07:11.812Z,55.30
2019-04-07T22:10:05.252Z,55.40
2019-04-07T22:13:00.253Z,55.50
2019-04-07T22:15:55.629Z,55.60
2019-04-07T22:18:40.692Z,56.00
2019-04-07T22:21:31.999Z,56.20
2019-04-07T22:24:23.360Z,56.30
2019-04-07T22:27:17.565Z,56.40
2019-04-07T22:30:09.887Z,56.60
2019-04-07T22:33:01.896Z,56.60
2019-04-07T22:35:53.950Z,56.60
2019-04-07T22:38:44.653Z,56.60
2019-04-07T22:41:39.078Z,56.60
2019-04-07T22:44:27.933Z,56.60
2019-04-07T22:47:19.768Z,56.50
2019-04-07T22:50:10.790Z,56.40
2019-04-07T22:53:01.689Z,56.50
2019-04-07T22:55:52.723Z,56.40
2019-04-07T22:58:44.474Z,56.30
2019-04-07T23:01:36.221Z,56.30
2019-04-07T23:04:27.925Z,56.30
2019-04-07T23:07:18.492Z,56.40
2019-04-07T23:10:09.141Z,56.60
2019-04-07T23:12:59.901Z,56.50
2019-04-07T23:15:51.072Z,56.50
2019-04-07T23:18:42.405Z,56.50
2019-04-07T23:21:34.121Z,56.50
2019-04-07T23:24:24.901Z,56.90
2019-04-07T23:27:16.255Z,57.10
2019-04-07T23:30:08.938Z,57.30
2019-04-07T23:33:00.051Z,57.40
2019-04-07T23:35:50.349Z,57.50
2019-04-07T23:38:41.627Z,57.50
2019-04-07T23:41:32.912Z,57.40
2019-04-07T23:44:24.128Z,57.40
2019-04-07T23:47:15.273Z,57.40
2019-04-07T23:50:07.900Z,57.60
2019-04-07T23:53:21.743Z,57.50
2019-04-07T23:56:12.302Z,57.50
2019-04-07T23:59:03.858Z,57.60
